sensor_id;sensor_type;location;lat;lon;timestamp;P1;durP1;ratioP1;P2;durP2;ratioP2
51515;SDS011;37603;55.614;37.326;2023-10-13T00:04:20;3.7;;;1.4;;
51515;SDS011;37603;55.614;37.326;2023-10-13T00:10:19;3.5;;;1.4;;
51515;SDS011;37603;55.614;37.326;2023-10-13T00:16:19;3.3;;;1.5;;
51515;SDS011;37603;55.614;37.326;2023-10-13T00:22:18;6.6;;;1.6;;
51515;SDS011;37603;55.614;37.326;2023-10-13T00:28:17;5.3;;;1.5;;
51515;SDS011;37603;55.614;37.326;2023-10-13T00:34:16;4.9;;;1.2;;
51515;SDS011;37603;55.614;37.326;2023-10-13T00:40:15;5.7;;;1.1;;
51515;SDS011;37603;55.614;37.326;2023-10-13T00:46:14;6.3;;;1.3;;
51515;SDS011;37603;55.614;37.326;2023-10-13T00:52:13;5.2;;;1.2;;
51515;SDS011;37603;55.614;37.326;2023-10-13T00:58:12;5.3;;;1.3;;
51515;SDS011;37603;55.614;37.326;2023-10-13T01:04:12;6.3;;;1.8;;
51515;SDS011;37603;55.614;37.326;2023-10-13T01:10:11;4.0;;;1.4;;
51515;SDS011;37603;55.614;37.326;2023-10-13T01:16:10;5.8;;;1.4;;
51515;SDS011;37603;55.614;37.326;2023-10-13T01:22:09;3.6;;;1.4;;
51515;SDS011;37603;55.614;37.326;2023-10-13T01:28:08;4.9;;;1.9;;
51515;SDS011;37603;55.614;37.326;2023-10-13T01:34:07;5.1;;;1.8;;
51515;SDS011;37603;55.614;37.326;2023-10-13T01:40:07;6.5;;;1.4;;
51515;SDS011;37603;55.614;37.326;2023-10-13T01:46:05;4.8;;;1.6;;
51515;SDS011;37603;55.614;37.326;2023-10-13T01:52:04;6.3;;;1.9;;
51515;SDS011;37603;55.614;37.326;2023-10-13T01:58:04;4.0;;;1.4;;
51515;SDS011;37603;55.614;37.326;2023-10-13T02:04:04;5.1;;;1.5;;
51515;SDS011;37603;55.614;37.326;2023-10-13T02:10:02;6.7;;;1.7;;
51515;SDS011;37603;55.614;37.326;2023-10-13T02:16:01;5.7;;;1.4;;
51515;SDS011;37603;55.614;37.326;2023-10-13T02:22:00;5.3;;;1.6;;
51515;SDS011;37603;55.614;37.326;2023-10-13T02:27:59;5.9;;;1.6;;
51515;SDS011;37603;55.614;37.326;2023-10-13T02:33:58;6.2;;;1.7;;
51515;SDS011;37603;55.614;37.326;2023-10-13T02:39:57;6.9;;;2.0;;
51515;SDS011;37603;55.614;37.326;2023-10-13T02:45:56;7.3;;;2.0;;
51515;SDS011;37603;55.614;37.326;2023-10-13T02:51:56;4.7;;;1.7;;
51515;SDS011;37603;55.614;37.326;2023-10-13T02:57:55;6.5;;;2.0;;
51515;SDS011;37603;55.614;37.326;2023-10-13T03:03:54;6.2;;;2.3;;
51515;SDS011;37603;55.614;37.326;2023-10-13T03:09:53;6.1;;;1.7;;
51515;SDS011;37603;55.614;37.326;2023-10-13T03:15:52;5.4;;;1.6;;
51515;SDS011;37603;55.614;37.326;2023-10-13T03:21:51;7.0;;;1.8;;
51515;SDS011;37603;55.614;37.326;2023-10-13T03:33:49;7.6;;;2.4;;
51515;SDS011;37603;55.614;37.326;2023-10-13T03:39:48;6.7;;;2.2;;
51515;SDS011;37603;55.614;37.326;2023-10-13T03:45:48;7.3;;;2.2;;
51515;SDS011;37603;55.614;37.326;2023-10-13T03:51:47;6.5;;;1.9;;
51515;SDS011;37603;55.614;37.326;2023-10-13T03:57:46;6.4;;;2.0;;
51515;SDS011;37603;55.614;37.326;2023-10-13T04:03:45;6.7;;;2.0;;
51515;SDS011;37603;55.614;37.326;2023-10-13T04:09:44;5.0;;;1.9;;
51515;SDS011;37603;55.614;37.326;2023-10-13T04:15:43;8.6;;;2.2;;
51515;SDS011;37603;55.614;37.326;2023-10-13T04:21:42;7.0;;;1.9;;
51515;SDS011;37603;55.614;37.326;2023-10-13T04:27:41;6.8;;;1.8;;
51515;SDS011;37603;55.614;37.326;2023-10-13T04:33:40;5.6;;;1.9;;
51515;SDS011;37603;55.614;37.326;2023-10-13T04:39:39;8.9;;;1.9;;
51515;SDS011;37603;55.614;37.326;2023-10-13T04:45:38;8.1;;;1.8;;
51515;SDS011;37603;55.614;37.326;2023-10-13T04:51:37;6.3;;;1.6;;
51515;SDS011;37603;55.614;37.326;2023-10-13T04:57:36;5.6;;;1.6;;
51515;SDS011;37603;55.614;37.326;2023-10-13T05:03:35;5.7;;;1.6;;
51515;SDS011;37603;55.614;37.326;2023-10-13T05:09:35;6.0;;;1.8;;
51515;SDS011;37603;55.614;37.326;2023-10-13T05:15:34;5.8;;;1.8;;
51515;SDS011;37603;55.614;37.326;2023-10-13T05:21:33;6.6;;;1.7;;
51515;SDS011;37603;55.614;37.326;2023-10-13T05:27:32;6.1;;;1.8;;
51515;SDS011;37603;55.614;37.326;2023-10-13T05:33:31;7.0;;;2.0;;
51515;SDS011;37603;55.614;37.326;2023-10-13T05:39:30;6.9;;;1.8;;
51515;SDS011;37603;55.614;37.326;2023-10-13T05:45:29;7.5;;;1.9;;
51515;SDS011;37603;55.614;37.326;2023-10-13T05:51:29;5.6;;;1.9;;
51515;SDS011;37603;55.614;37.326;2023-10-13T05:57:27;6.9;;;1.7;;
51515;SDS011;37603;55.614;37.326;2023-10-13T06:03:27;5.4;;;1.6;;
51515;SDS011;37603;55.614;37.326;2023-10-13T06:09:26;5.1;;;1.3;;
51515;SDS011;37603;55.614;37.326;2023-10-13T06:15:25;6.1;;;1.6;;
51515;SDS011;37603;55.614;37.326;2023-10-13T06:21:24;7.2;;;1.7;;
51515;SDS011;37603;55.614;37.326;2023-10-13T06:27:23;4.6;;;1.4;;
51515;SDS011;37603;55.614;37.326;2023-10-13T06:33:22;5.3;;;1.6;;
51515;SDS011;37603;55.614;37.326;2023-10-13T06:39:21;6.4;;;1.7;;
51515;SDS011;37603;55.614;37.326;2023-10-13T06:45:20;8.3;;;1.8;;
51515;SDS011;37603;55.614;37.326;2023-10-13T06:51:20;4.8;;;1.5;;
51515;SDS011;37603;55.614;37.326;2023-10-13T06:57:19;5.3;;;1.6;;
51515;SDS011;37603;55.614;37.326;2023-10-13T07:03:18;5.9;;;1.8;;
51515;SDS011;37603;55.614;37.326;2023-10-13T07:09:17;6.7;;;1.7;;
51515;SDS011;37603;55.614;37.326;2023-10-13T07:15:16;4.7;;;1.4;;
51515;SDS011;37603;55.614;37.326;2023-10-13T07:21:15;5.1;;;1.4;;
51515;SDS011;37603;55.614;37.326;2023-10-13T07:27:15;3.5;;;1.1;;
51515;SDS011;37603;55.614;37.326;2023-10-13T07:33:14;3.4;;;1.1;;
51515;SDS011;37603;55.614;37.326;2023-10-13T07:39:13;3.6;;;1.0;;
51515;SDS011;37603;55.614;37.326;2023-10-13T07:45:12;6.4;;;1.2;;
51515;SDS011;37603;55.614;37.326;2023-10-13T07:51:12;3.2;;;1.1;;
51515;SDS011;37603;55.614;37.326;2023-10-13T07:57:11;3.5;;;1.2;;
51515;SDS011;37603;55.614;37.326;2023-10-13T08:03:10;3.2;;;1.3;;
51515;SDS011;37603;55.614;37.326;2023-10-13T08:09:09;2.7;;;0.9;;
51515;SDS011;37603;55.614;37.326;2023-10-13T08:15:09;4.1;;;1.2;;
51515;SDS011;37603;55.614;37.326;2023-10-13T08:21:08;3.9;;;0.7;;
51515;SDS011;37603;55.614;37.326;2023-10-13T08:27:07;3.0;;;0.8;;
51515;SDS011;37603;55.614;37.326;2023-10-13T08:33:06;1.9;;;0.8;;
51515;SDS011;37603;55.614;37.326;2023-10-13T08:45:05;5.4;;;1.1;;
51515;SDS011;37603;55.614;37.326;2023-10-13T08:51:04;3.2;;;0.6;;
51515;SDS011;37603;55.614;37.326;2023-10-13T08:57:03;2.7;;;0.8;;
51515;SDS011;37603;55.614;37.326;2023-10-13T09:03:04;2.1;;;0.6;;
51515;SDS011;37603;55.614;37.326;2023-10-13T09:09:04;4.3;;;0.9;;
51515;SDS011;37603;55.614;37.326;2023-10-13T09:15:01;3.2;;;0.9;;
51515;SDS011;37603;55.614;37.326;2023-10-13T09:21:00;4.8;;;1.1;;
51515;SDS011;37603;55.614;37.326;2023-10-13T09:26:59;2.3;;;0.8;;
51515;SDS011;37603;55.614;37.326;2023-10-13T09:32:59;3.2;;;0.8;;
51515;SDS011;37603;55.614;37.326;2023-10-13T09:38:57;3.6;;;1.0;;
51515;SDS011;37603;55.614;37.326;2023-10-13T09:44:57;2.8;;;0.8;;
51515;SDS011;37603;55.614;37.326;2023-10-13T09:50:56;4.8;;;2.0;;
51515;SDS011;37603;55.614;37.326;2023-10-13T09:56:56;3.3;;;1.1;;
51515;SDS011;37603;55.614;37.326;2023-10-13T10:02:55;2.3;;;1.0;;
51515;SDS011;37603;55.614;37.326;2023-10-13T10:09:04;3.6;;;1.0;;
51515;SDS011;37603;55.614;37.326;2023-10-13T10:14:59;2.9;;;0.9;;
51515;SDS011;37603;55.614;37.326;2023-10-13T10:21:02;2.8;;;0.8;;
51515;SDS011;37603;55.614;37.326;2023-10-13T10:26:52;3.7;;;0.8;;
51515;SDS011;37603;55.614;37.326;2023-10-13T10:32:53;4.0;;;1.1;;
51515;SDS011;37603;55.614;37.326;2023-10-13T10:38:51;3.2;;;1.1;;
51515;SDS011;37603;55.614;37.326;2023-10-13T10:44:49;3.7;;;1.2;;
51515;SDS011;37603;55.614;37.326;2023-10-13T10:50:51;4.1;;;1.2;;
51515;SDS011;37603;55.614;37.326;2023-10-13T10:56:47;3.6;;;0.9;;
51515;SDS011;37603;55.614;37.326;2023-10-13T11:02:53;1.7;;;0.8;;
51515;SDS011;37603;55.614;37.326;2023-10-13T11:08:46;5.1;;;0.9;;
51515;SDS011;37603;55.614;37.326;2023-10-13T11:14:45;3.4;;;1.5;;
51515;SDS011;37603;55.614;37.326;2023-10-13T11:20:44;5.0;;;1.5;;
51515;SDS011;37603;55.614;37.326;2023-10-13T11:26:44;3.3;;;1.1;;
51515;SDS011;37603;55.614;37.326;2023-10-13T11:32:43;1.2;;;0.6;;
51515;SDS011;37603;55.614;37.326;2023-10-13T11:38:42;2.4;;;0.9;;
51515;SDS011;37603;55.614;37.326;2023-10-13T11:44:41;3.0;;;0.8;;
51515;SDS011;37603;55.614;37.326;2023-10-13T11:50:41;2.0;;;0.7;;
51515;SDS011;37603;55.614;37.326;2023-10-13T11:56:40;3.4;;;0.8;;
51515;SDS011;37603;55.614;37.326;2023-10-13T12:02:39;3.2;;;1.0;;
51515;SDS011;37603;55.614;37.326;2023-10-13T12:08:39;2.8;;;0.9;;
51515;SDS011;37603;55.614;37.326;2023-10-13T12:14:38;2.7;;;0.9;;
51515;SDS011;37603;55.614;37.326;2023-10-13T12:26:36;3.7;;;1.1;;
51515;SDS011;37603;55.614;37.326;2023-10-13T12:32:35;5.2;;;1.3;;
51515;SDS011;37603;55.614;37.326;2023-10-13T12:38:35;5.3;;;1.2;;
51515;SDS011;37603;55.614;37.326;2023-10-13T12:44:34;4.8;;;1.1;;
51515;SDS011;37603;55.614;37.326;2023-10-13T12:56:33;4.5;;;1.3;;
51515;SDS011;37603;55.614;37.326;2023-10-13T13:02:33;3.3;;;1.0;;
51515;SDS011;37603;55.614;37.326;2023-10-13T13:08:31;4.3;;;1.2;;
51515;SDS011;37603;55.614;37.326;2023-10-13T13:14:30;4.6;;;1.6;;
51515;SDS011;37603;55.614;37.326;2023-10-13T13:20:30;5.2;;;1.5;;
51515;SDS011;37603;55.614;37.326;2023-10-13T13:26:29;4.0;;;1.5;;
51515;SDS011;37603;55.614;37.326;2023-10-13T13:32:28;5.0;;;1.6;;
51515;SDS011;37603;55.614;37.326;2023-10-13T13:38:27;3.7;;;1.4;;
51515;SDS011;37603;55.614;37.326;2023-10-13T13:44:27;5.3;;;1.9;;
51515;SDS011;37603;55.614;37.326;2023-10-13T13:50:26;7.4;;;2.6;;
51515;SDS011;37603;55.614;37.326;2023-10-13T13:56:25;5.1;;;1.9;;
51515;SDS011;37603;55.614;37.326;2023-10-13T14:02:25;5.9;;;2.1;;
51515;SDS011;37603;55.614;37.326;2023-10-13T14:08:24;6.8;;;2.7;;
51515;SDS011;37603;55.614;37.326;2023-10-13T14:14:23;7.2;;;2.7;;
51515;SDS011;37603;55.614;37.326;2023-10-13T14:20:22;6.0;;;2.5;;
51515;SDS011;37603;55.614;37.326;2023-10-13T14:26:21;6.7;;;2.5;;
51515;SDS011;37603;55.614;37.326;2023-10-13T14:32:21;6.5;;;2.6;;
51515;SDS011;37603;55.614;37.326;2023-10-13T14:38:20;5.7;;;3.1;;
51515;SDS011;37603;55.614;37.326;2023-10-13T14:44:19;7.0;;;3.4;;
51515;SDS011;37603;55.614;37.326;2023-10-13T14:50:18;6.4;;;3.1;;
51515;SDS011;37603;55.614;37.326;2023-10-13T14:56:17;6.6;;;3.2;;
51515;SDS011;37603;55.614;37.326;2023-10-13T15:02:17;9.9;;;3.6;;
51515;SDS011;37603;55.614;37.326;2023-10-13T15:08:16;7.4;;;3.1;;
51515;SDS011;37603;55.614;37.326;2023-10-13T15:14:15;8.6;;;3.5;;
51515;SDS011;37603;55.614;37.326;2023-10-13T15:20:15;7.0;;;3.1;;
51515;SDS011;37603;55.614;37.326;2023-10-13T15:26:13;7.8;;;3.7;;
51515;SDS011;37603;55.614;37.326;2023-10-13T15:32:14;8.5;;;4.5;;
51515;SDS011;37603;55.614;37.326;2023-10-13T15:38:12;11.4;;;6.6;;
51515;SDS011;37603;55.614;37.326;2023-10-13T15:44:12;11.5;;;7.1;;
51515;SDS011;37603;55.614;37.326;2023-10-13T15:50:10;13.0;;;7.6;;
51515;SDS011;37603;55.614;37.326;2023-10-13T15:56:09;13.7;;;7.4;;
51515;SDS011;37603;55.614;37.326;2023-10-13T16:02:08;11.2;;;6.4;;
51515;SDS011;37603;55.614;37.326;2023-10-13T16:08:07;8.3;;;5.2;;
51515;SDS011;37603;55.614;37.326;2023-10-13T16:14:07;11.1;;;5.9;;
51515;SDS011;37603;55.614;37.326;2023-10-13T16:20:06;13.7;;;8.2;;
51515;SDS011;37603;55.614;37.326;2023-10-13T16:26:05;15.0;;;8.8;;
51515;SDS011;37603;55.614;37.326;2023-10-13T16:32:04;12.6;;;7.6;;
51515;SDS011;37603;55.614;37.326;2023-10-13T16:38:03;12.8;;;7.2;;
51515;SDS011;37603;55.614;37.326;2023-10-13T16:44:03;11.3;;;6.5;;
51515;SDS011;37603;55.614;37.326;2023-10-13T16:50:01;10.3;;;6.1;;
51515;SDS011;37603;55.614;37.326;2023-10-13T16:56:01;12.5;;;6.2;;
51515;SDS011;37603;55.614;37.326;2023-10-13T17:01:59;12.0;;;6.9;;
51515;SDS011;37603;55.614;37.326;2023-10-13T17:07:59;11.6;;;6.8;;
51515;SDS011;37603;55.614;37.326;2023-10-13T17:13:58;12.2;;;7.1;;
51515;SDS011;37603;55.614;37.326;2023-10-13T17:19:57;9.8;;;6.4;;
51515;SDS011;37603;55.614;37.326;2023-10-13T17:25:56;10.0;;;6.0;;
51515;SDS011;37603;55.614;37.326;2023-10-13T17:31:55;9.0;;;5.5;;
51515;SDS011;37603;55.614;37.326;2023-10-13T17:37:54;9.1;;;5.5;;
51515;SDS011;37603;55.614;37.326;2023-10-13T17:43:53;11.6;;;5.8;;
51515;SDS011;37603;55.614;37.326;2023-10-13T17:49:52;10.9;;;5.3;;
51515;SDS011;37603;55.614;37.326;2023-10-13T17:55:51;9.3;;;5.6;;
51515;SDS011;37603;55.614;37.326;2023-10-13T18:01:50;12.0;;;5.7;;
51515;SDS011;37603;55.614;37.326;2023-10-13T18:07:49;13.9;;;6.5;;
51515;SDS011;37603;55.614;37.326;2023-10-13T18:13:48;12.0;;;6.8;;
51515;SDS011;37603;55.614;37.326;2023-10-13T18:19:47;13.8;;;6.5;;
51515;SDS011;37603;55.614;37.326;2023-10-13T18:25:46;10.5;;;6.8;;
51515;SDS011;37603;55.614;37.326;2023-10-13T18:31:45;12.9;;;7.4;;
51515;SDS011;37603;55.614;37.326;2023-10-13T18:37:45;13.3;;;7.1;;
51515;SDS011;37603;55.614;37.326;2023-10-13T18:43:44;13.7;;;7.4;;
51515;SDS011;37603;55.614;37.326;2023-10-13T18:49:43;13.1;;;6.3;;
51515;SDS011;37603;55.614;37.326;2023-10-13T18:55:42;8.9;;;4.8;;
51515;SDS011;37603;55.614;37.326;2023-10-13T19:01:42;8.2;;;4.4;;
51515;SDS011;37603;55.614;37.326;2023-10-13T19:07:40;8.0;;;4.1;;
51515;SDS011;37603;55.614;37.326;2023-10-13T19:13:39;6.5;;;3.6;;
51515;SDS011;37603;55.614;37.326;2023-10-13T19:19:38;7.6;;;3.3;;
51515;SDS011;37603;55.614;37.326;2023-10-13T19:25:37;6.2;;;3.3;;
51515;SDS011;37603;55.614;37.326;2023-10-13T19:31:36;8.8;;;3.6;;
51515;SDS011;37603;55.614;37.326;2023-10-13T19:37:35;7.7;;;3.7;;
51515;SDS011;37603;55.614;37.326;2023-10-13T19:43:34;9.4;;;4.2;;
51515;SDS011;37603;55.614;37.326;2023-10-13T19:49:33;7.5;;;4.5;;
51515;SDS011;37603;55.614;37.326;2023-10-13T19:55:36;9.9;;;4.9;;
51515;SDS011;37603;55.614;37.326;2023-10-13T20:01:31;10.0;;;5.3;;
51515;SDS011;37603;55.614;37.326;2023-10-13T20:07:30;11.0;;;5.2;;
51515;SDS011;37603;55.614;37.326;2023-10-13T20:13:29;11.4;;;5.9;;
51515;SDS011;37603;55.614;37.326;2023-10-13T20:19:28;11.2;;;5.8;;
51515;SDS011;37603;55.614;37.326;2023-10-13T20:25:27;10.0;;;5.8;;
51515;SDS011;37603;55.614;37.326;2023-10-13T20:37:26;10.5;;;6.8;;
51515;SDS011;37603;55.614;37.326;2023-10-13T20:43:24;12.8;;;7.0;;
51515;SDS011;37603;55.614;37.326;2023-10-13T20:49:25;12.2;;;6.6;;
51515;SDS011;37603;55.614;37.326;2023-10-13T20:55:22;12.3;;;6.2;;
51515;SDS011;37603;55.614;37.326;2023-10-13T21:01:22;9.6;;;5.2;;
51515;SDS011;37603;55.614;37.326;2023-10-13T21:07:20;8.6;;;5.2;;
51515;SDS011;37603;55.614;37.326;2023-10-13T21:13:19;10.3;;;5.1;;
51515;SDS011;37603;55.614;37.326;2023-10-13T21:19:18;8.3;;;4.7;;
51515;SDS011;37603;55.614;37.326;2023-10-13T21:25:17;9.1;;;4.4;;
51515;SDS011;37603;55.614;37.326;2023-10-13T21:31:17;8.4;;;4.3;;
51515;SDS011;37603;55.614;37.326;2023-10-13T21:37:16;6.9;;;3.8;;
51515;SDS011;37603;55.614;37.326;2023-10-13T21:43:14;8.1;;;4.1;;
51515;SDS011;37603;55.614;37.326;2023-10-13T21:49:13;10.1;;;3.8;;
51515;SDS011;37603;55.614;37.326;2023-10-13T21:55:12;7.6;;;4.2;;
51515;SDS011;37603;55.614;37.326;2023-10-13T22:01:11;8.5;;;3.6;;
51515;SDS011;37603;55.614;37.326;2023-10-13T22:07:10;7.8;;;3.6;;
51515;SDS011;37603;55.614;37.326;2023-10-13T22:13:09;7.6;;;3.5;;
51515;SDS011;37603;55.614;37.326;2023-10-13T22:19:08;7.0;;;3.7;;
51515;SDS011;37603;55.614;37.326;2023-10-13T22:25:07;6.7;;;3.4;;
51515;SDS011;37603;55.614;37.326;2023-10-13T22:31:06;7.1;;;3.4;;
51515;SDS011;37603;55.614;37.326;2023-10-13T22:37:05;5.0;;;3.1;;
51515;SDS011;37603;55.614;37.326;2023-10-13T22:43:04;6.5;;;3.2;;
51515;SDS011;37603;55.614;37.326;2023-10-13T22:49:03;7.4;;;3.2;;
51515;SDS011;37603;55.614;37.326;2023-10-13T22:55:02;7.1;;;3.3;;
51515;SDS011;37603;55.614;37.326;2023-10-13T23:01:01;7.3;;;3.4;;
51515;SDS011;37603;55.614;37.326;2023-10-13T23:07:00;7.0;;;3.2;;
51515;SDS011;37603;55.614;37.326;2023-10-13T23:12:58;7.5;;;3.2;;
51515;SDS011;37603;55.614;37.326;2023-10-13T23:18:57;8.1;;;3.4;;
51515;SDS011;37603;55.614;37.326;2023-10-13T23:24:56;6.2;;;3.1;;
51515;SDS011;37603;55.614;37.326;2023-10-13T23:30:55;6.8;;;3.2;;
51515;SDS011;37603;55.614;37.326;2023-10-13T23:36:54;9.3;;;3.3;;
51515;SDS011;37603;55.614;37.326;2023-10-13T23:42:53;6.5;;;3.3;;
51515;SDS011;37603;55.614;37.326;2023-10-13T23:48:52;8.7;;;3.2;;
51515;SDS011;37603;55.614;37.326;2023-10-13T23:54:52;6.5;;;3.4;;
